createdAt,value
2019-04-04T00:02:26.606Z,97398.70
2019-04-04T00:05:00.433Z,97394.96
2019-04-04T00:07:34.017Z,97390.10
2019-04-04T00:10:08.454Z,97392.80
2019-04-04T00:12:42.102Z,97391.98
2019-04-04T00:15:17.302Z,97382.84
2019-04-04T00:17:53.626Z,97381.20
2019-04-04T00:20:27.328Z,97375.81
2019-04-04T00:23:02.955Z,97374.95
2019-04-04T00:25:36.935Z,97371.77
2019-04-04T00:28:10.717Z,97371.24
2019-04-04T00:30:44.474Z,97369.38
2019-04-04T00:33:18.306Z,97372.59
2019-04-04T00:35:52.502Z,97366.38
2019-04-04T00:38:26.236Z,97368.55
2019-04-04T00:40:59.992Z,97360.98
2019-04-04T00:43:33.780Z,97361.81
2019-04-04T00:46:07.534Z,97352.91
2019-04-04T00:48:41.292Z,97356.95
2019-04-04T00:51:14.885Z,97357.77
2019-04-04T00:53:48.754Z,97347.19
2019-04-04T00:56:22.832Z,97349.89
2019-04-04T00:58:56.667Z,97349.36
2019-04-04T01:01:30.356Z,97349.89
2019-04-04T01:04:04.058Z,97360.14
2019-04-04T01:06:37.811Z,97356.09
2019-04-04T01:09:13.470Z,97357.97
2019-04-04T01:11:46.931Z,97350.70
2019-04-04T01:14:20.852Z,97348.54
2019-04-04T01:16:54.448Z,97348.54
2019-04-04T01:19:28.192Z,97349.89
2019-04-04T01:22:02.584Z,97352.58
2019-04-04T01:24:36.429Z,97349.89
2019-04-04T01:27:10.265Z,97347.19
2019-04-04T01:29:44.047Z,97349.59
2019-04-04T01:32:18.866Z,97344.20
2019-04-04T01:34:52.749Z,97344.50
2019-04-04T01:37:27.221Z,97351.77
2019-04-04T01:40:02.775Z,97348.25
2019-04-04T01:42:38.777Z,97350.41
2019-04-04T01:45:13.072Z,97352.28
2019-04-04T01:47:48.670Z,97349.59
2019-04-04T01:50:23.313Z,97346.90
2019-04-04T01:52:59.203Z,97349.06
2019-04-04T01:55:32.978Z,97353.63
2019-04-04T01:58:09.975Z,97356.33
2019-04-04T02:00:44.020Z,97355.50
2019-04-04T02:03:22.481Z,97353.63
2019-04-04T02:05:56.215Z,97356.33
2019-04-04T02:08:31.727Z,97360.08
2019-04-04T02:11:06.016Z,97351.98
2019-04-04T02:13:40.988Z,97356.53
2019-04-04T02:16:16.933Z,97353.34
2019-04-04T02:18:53.566Z,97357.67
2019-04-04T02:21:28.517Z,97351.98
2019-04-04T02:24:02.071Z,97350.64
2019-04-04T02:26:36.604Z,97347.09
2019-04-04T02:29:11.053Z,97354.16
2019-04-04T02:31:52.949Z,97347.63
2019-04-04T02:34:24.061Z,97347.95
2019-04-04T02:36:58.887Z,97339.54
2019-04-04T02:39:35.269Z,97340.89
2019-04-04T02:42:08.281Z,97335.83
2019-04-04T02:44:42.370Z,97335.50
2019-04-04T02:47:17.561Z,97336.84
2019-04-04T02:49:52.022Z,97336.84
2019-04-04T02:52:25.755Z,97339.54
2019-04-04T02:54:59.477Z,97336.55
2019-04-04T02:57:33.229Z,97330.11
2019-04-04T03:00:07.322Z,97336.02
2019-04-04T03:02:40.914Z,97331.98
2019-04-04T03:05:18.819Z,97330.94
2019-04-04T03:07:49.985Z,97325.77
2019-04-04T03:10:23.841Z,97329.81
2019-04-04T03:12:58.478Z,97330.11
2019-04-04T03:15:32.951Z,97330.84
2019-04-04T03:18:08.101Z,97330.94
2019-04-04T03:20:41.828Z,97324.42
2019-04-04T03:23:15.635Z,97324.42
2019-04-04T03:25:49.372Z,97324.42
2019-04-04T03:28:23.020Z,97318.52
2019-04-04T03:31:02.390Z,97319.86
2019-04-04T03:33:32.908Z,97315.52
2019-04-04T03:36:06.859Z,97310.95
2019-04-04T03:38:40.624Z,97307.11
2019-04-04T03:41:14.347Z,97305.57
2019-04-04T03:43:49.073Z,97311.16
2019-04-04T03:46:23.131Z,97305.77
2019-04-04T03:48:56.776Z,97305.25
2019-04-04T03:51:30.515Z,97319.56
2019-04-04T03:54:07.748Z,97311.48
2019-04-04T03:56:41.374Z,97320.06
2019-04-04T03:59:15.108Z,97311.16
2019-04-04T04:01:48.936Z,97313.85
2019-04-04T04:04:27.085Z,97311.16
2019-04-04T04:06:58.446Z,97323.80
2019-04-04T04:09:32.518Z,97317.07
2019-04-04T04:12:11.047Z,97313.33
2019-04-04T04:14:43.644Z,97319.77
2019-04-04T04:17:17.409Z,97317.07
2019-04-04T04:19:51.246Z,97313.85
2019-04-04T04:22:25.031Z,97316.02
2019-04-04T04:25:02.166Z,97313.85
2019-04-04T04:27:34.164Z,97313.03
2019-04-04T04:30:07.852Z,97313.03
2019-04-04T04:32:42.308Z,97313.03
2019-04-04T04:35:16.052Z,97307.84
2019-04-04T04:37:53.341Z,97310.34
2019-04-04T04:40:25.329Z,97317.59
2019-04-04T04:43:00.830Z,97318.41
2019-04-04T04:45:34.883Z,97320.29
2019-04-04T04:48:08.600Z,97322.98
2019-04-04T04:50:42.706Z,97331.06
2019-04-04T04:53:18.678Z,97321.11
2019-04-04T04:55:53.513Z,97322.98
2019-04-04T04:58:27.317Z,97324.33
2019-04-04T05:01:01.233Z,97327.65
2019-04-04T05:03:35.029Z,97323.28
2019-04-04T05:06:08.781Z,97324.63
2019-04-04T05:08:42.771Z,97327.84
2019-04-04T05:11:16.871Z,97326.80
2019-04-04T05:13:52.371Z,97324.63
2019-04-04T05:16:26.121Z,97326.80
2019-04-04T05:18:59.936Z,97328.67
2019-04-04T05:21:34.608Z,97324.95
2019-04-04T05:24:08.521Z,97326.30
2019-04-04T05:26:42.402Z,97319.56
2019-04-04T05:29:16.251Z,97317.16
2019-04-04T05:31:50.049Z,97315.30
2019-04-04T05:34:24.327Z,97317.88
2019-04-04T05:36:58.045Z,97311.15
2019-04-04T05:39:31.999Z,97316.21
2019-04-04T05:42:05.823Z,97325.64
2019-04-04T05:44:41.648Z,97320.58
2019-04-04T05:47:14.909Z,97328.56
2019-04-04T05:49:48.598Z,97335.59
2019-04-04T05:52:22.361Z,97337.23
2019-04-04T05:54:56.195Z,97327.81
2019-04-04T05:57:29.925Z,97328.33
2019-04-04T06:00:06.157Z,97329.52
2019-04-04T06:02:41.070Z,97329.81
2019-04-04T06:05:16.028Z,97339.02
2019-04-04T06:07:49.734Z,97328.23
2019-04-04T06:10:23.555Z,97339.02
2019-04-04T06:12:57.369Z,97336.55
2019-04-04T06:15:32.252Z,97335.20
2019-04-04T06:18:06.714Z,97341.41
2019-04-04T06:20:40.425Z,97338.91
2019-04-04T06:23:14.436Z,97341.70
2019-04-04T06:25:48.322Z,97339.45
2019-04-04T06:28:22.434Z,97337.38
2019-04-04T06:30:56.229Z,97336.84
2019-04-04T06:33:29.958Z,97340.98
2019-04-04T06:36:03.686Z,97339.11
2019-04-04T06:38:37.509Z,97332.61
2019-04-04T06:41:11.350Z,97333.63
2019-04-04T06:43:46.078Z,97334.16
2019-04-04T06:46:22.758Z,97335.83
2019-04-04T06:48:55.375Z,97339.54
2019-04-04T06:51:29.071Z,97339.24
2019-04-04T06:54:03.107Z,97344.41
2019-04-04T06:56:36.960Z,97329.81
2019-04-04T06:59:12.134Z,97338.42
2019-04-04T07:01:46.068Z,97337.57
2019-04-04T07:04:20.906Z,97331.36
2019-04-04T07:06:54.664Z,97334.97
2019-04-04T07:09:28.418Z,97336.32
2019-04-04T07:12:02.586Z,97337.38
2019-04-04T07:14:45.491Z,97331.69
2019-04-04T07:17:12.236Z,97337.89
2019-04-04T07:19:46.785Z,97331.36
2019-04-04T07:22:24.422Z,97338.09
2019-04-04T07:24:56.194Z,97336.55
2019-04-04T07:27:30.012Z,97335.73
2019-04-04T07:30:04.044Z,97342.47
2019-04-04T07:32:40.837Z,97338.42
2019-04-04T07:35:16.763Z,97336.55
2019-04-04T07:37:48.954Z,97334.88
2019-04-04T07:40:22.669Z,97330.34
2019-04-04T07:42:56.514Z,97324.23
2019-04-04T07:45:30.271Z,97318.13
2019-04-04T07:48:05.566Z,97329.48
2019-04-04T07:50:39.488Z,97327.65
2019-04-04T07:53:14.013Z,97319.56
2019-04-04T07:55:47.844Z,97334.68
2019-04-04T07:58:21.640Z,97310.13
2019-04-04T08:00:55.383Z,97324.42
2019-04-04T08:03:29.104Z,97325.25
2019-04-04T08:06:04.506Z,97321.50
2019-04-04T08:08:38.110Z,97318.31
2019-04-04T08:11:13.447Z,97324.42
2019-04-04T08:13:47.466Z,97323.61
2019-04-04T08:16:21.355Z,97321.11
2019-04-04T08:18:55.004Z,97309.52
2019-04-04T08:21:28.738Z,97316.55
2019-04-04T08:24:02.580Z,97317.70
2019-04-04T08:26:36.457Z,97308.89
2019-04-04T08:29:10.237Z,97316.11
2019-04-04T08:31:45.590Z,97300.48
2019-04-04T08:34:19.443Z,97304.22
2019-04-04T08:36:54.396Z,97303.70
2019-04-04T08:39:28.269Z,97311.78
2019-04-04T08:42:01.948Z,97309.09
2019-04-04T08:44:36.625Z,97305.05
2019-04-04T08:47:10.649Z,97303.17
2019-04-04T08:49:44.510Z,97301.83
2019-04-04T08:52:20.892Z,97306.69
2019-04-04T08:54:54.806Z,97308.36
2019-04-04T08:57:28.693Z,97301.83
2019-04-04T09:00:02.462Z,97306.69
2019-04-04T09:02:36.318Z,97305.34
2019-04-04T09:05:12.127Z,97308.56
2019-04-04T09:07:45.556Z,97304.84
2019-04-04T09:10:19.417Z,97298.93
2019-04-04T09:12:53.122Z,97294.56
2019-04-04T09:15:26.992Z,97288.35
2019-04-04T09:18:00.725Z,97296.44
2019-04-04T09:20:34.618Z,97290.84
2019-04-04T09:23:08.498Z,97295.41
2019-04-04T09:25:42.211Z,97291.38
2019-04-04T09:28:15.968Z,97293.22
2019-04-04T09:30:49.719Z,97291.38
2019-04-04T09:33:23.462Z,97290.84
2019-04-04T09:35:57.228Z,97290.52
2019-04-04T09:38:30.985Z,97295.71
2019-04-04T09:41:04.913Z,97287.33
2019-04-04T09:43:38.577Z,97288.68
2019-04-04T09:46:19.466Z,97283.40
2019-04-04T09:48:53.322Z,97279.02
2019-04-04T09:51:27.068Z,97279.11
2019-04-04T09:54:00.895Z,97277.24
2019-04-04T09:56:34.558Z,97274.45
2019-04-04T09:59:08.352Z,97271.56
2019-04-04T10:01:42.163Z,97258.09
2019-04-04T10:04:15.882Z,97271.85
2019-04-04T10:06:49.683Z,97249.19
2019-04-04T10:09:23.359Z,97252.70
2019-04-04T10:11:57.796Z,97246.78
2019-04-04T10:14:31.551Z,97242.13
2019-04-04T10:17:05.462Z,97247.84
2019-04-04T10:19:39.211Z,97245.64
2019-04-04T10:22:12.936Z,97233.28
2019-04-04T10:24:46.548Z,97228.17
2019-04-04T10:27:20.251Z,97234.18
2019-04-04T10:29:54.575Z,97231.05
2019-04-04T10:32:28.998Z,97236.44
2019-04-04T10:35:02.918Z,97225.03
2019-04-04T10:37:36.734Z,97232.15
2019-04-04T10:40:10.577Z,97223.16
2019-04-04T10:42:44.260Z,97220.13
2019-04-04T10:45:18.170Z,97221.48
2019-04-04T10:47:51.943Z,97212.91
2019-04-04T10:50:25.730Z,97219.31
2019-04-04T10:53:01.290Z,97238.99
2019-04-04T10:55:35.654Z,97225.76
2019-04-04T10:58:09.407Z,97197.88
2019-04-04T11:00:43.197Z,97203.98
2019-04-04T11:03:18.774Z,97205.27
2019-04-04T11:05:52.737Z,97196.77
2019-04-04T11:08:26.521Z,97198.67
2019-04-04T11:11:00.378Z,97204.40
2019-04-04T11:13:34.242Z,97200.00
2019-04-04T11:16:08.072Z,97200.25
2019-04-04T11:18:43.692Z,97199.41
2019-04-04T11:21:17.566Z,97197.63
2019-04-04T11:23:52.571Z,97188.20
2019-04-04T11:26:27.602Z,97183.11
2019-04-04T11:29:01.561Z,97190.66
2019-04-04T11:31:35.237Z,97178.34
2019-04-04T11:34:09.149Z,97186.95
2019-04-04T11:36:43.056Z,97217.83
2019-04-04T11:39:16.885Z,97189.98
2019-04-04T11:41:50.744Z,97187.82
2019-04-04T11:44:25.524Z,97174.26
2019-04-04T11:46:59.329Z,97182.02
2019-04-04T11:49:33.088Z,97181.72
2019-04-04T11:52:06.888Z,97174.89
2019-04-04T11:55:02.610Z,97171.06
2019-04-04T11:57:36.472Z,97168.28
2019-04-04T12:00:13.487Z,97156.39
2019-04-04T12:02:47.720Z,97145.30
2019-04-04T12:05:21.614Z,97145.30
2019-04-04T12:07:55.502Z,97146.64
2019-04-04T12:10:29.156Z,97152.55
2019-04-04T12:13:02.878Z,97184.87
2019-04-04T12:15:36.570Z,97153.28
2019-04-04T12:18:10.478Z,97152.78
2019-04-04T12:20:44.466Z,97141.92
2019-04-04T12:23:18.256Z,97144.38
2019-04-04T12:25:52.612Z,97146.78
2019-04-04T12:28:26.438Z,97143.77
2019-04-04T12:31:00.132Z,97136.73
2019-04-04T12:33:33.911Z,97144.81
2019-04-04T12:36:08.143Z,97141.30
2019-04-04T12:38:41.926Z,97150.20
2019-04-04T12:41:15.671Z,97124.00
2019-04-04T12:43:49.456Z,97128.27
2019-04-04T12:46:23.209Z,97130.45
2019-04-04T12:48:57.175Z,97118.85
2019-04-04T12:51:31.266Z,97112.65
2019-04-04T12:54:05.393Z,97119.67
2019-04-04T12:56:39.096Z,97124.53
2019-04-04T12:59:12.769Z,97112.41
2019-04-04T13:01:46.493Z,97124.00
2019-04-04T13:04:30.931Z,97116.16
2019-04-04T13:06:55.818Z,97110.45
2019-04-04T13:09:30.483Z,97110.25
2019-04-04T13:12:04.360Z,97108.61
2019-04-04T13:14:38.093Z,97098.86
2019-04-04T13:17:11.846Z,97089.94
2019-04-04T13:19:45.724Z,97092.02
2019-04-04T13:22:19.858Z,97092.61
2019-04-04T13:24:53.464Z,97082.36
2019-04-04T13:27:27.119Z,97084.03
2019-04-04T13:30:00.988Z,97076.16
2019-04-04T13:32:34.826Z,97082.16
2019-04-04T13:35:08.585Z,97085.97
2019-04-04T13:37:42.657Z,97081.72
2019-04-04T13:40:16.359Z,97080.67
2019-04-04T13:42:52.780Z,97078.30
2019-04-04T13:45:29.530Z,97074.34
2019-04-04T13:48:03.428Z,97074.87
2019-04-04T13:50:37.204Z,97080.26
2019-04-04T13:53:11.448Z,97080.75
2019-04-04T13:55:45.258Z,97084.30
2019-04-04T13:58:21.926Z,97072.18
2019-04-04T14:00:54.363Z,97074.87
2019-04-04T14:03:31.009Z,97084.59
2019-04-04T14:06:05.645Z,97073.81
2019-04-04T14:08:40.427Z,97075.98
2019-04-04T14:11:18.355Z,97081.17
2019-04-04T14:13:52.142Z,97077.86
2019-04-04T14:16:26.131Z,97080.26
2019-04-04T14:19:03.275Z,97077.56
2019-04-04T14:21:37.220Z,97078.38
2019-04-04T14:24:13.824Z,97080.31
2019-04-04T14:26:46.585Z,97070.07
2019-04-04T14:29:27.216Z,97076.52
2019-04-04T14:31:55.933Z,97068.64
2019-04-04T14:34:29.888Z,97073.20
2019-04-04T14:37:03.870Z,97067.81
2019-04-04T14:39:37.556Z,97061.09
2019-04-04T14:42:11.827Z,97060.27
2019-04-04T14:44:45.654Z,97064.92
2019-04-04T14:47:23.799Z,97064.39
2019-04-04T14:49:59.816Z,97067.61
2019-04-04T14:52:34.938Z,97067.00
2019-04-04T14:55:08.786Z,97059.21
2019-04-04T14:57:42.668Z,97067.61
2019-04-04T15:00:17.485Z,97065.50
2019-04-04T15:02:51.117Z,97060.97
2019-04-04T15:05:25.047Z,97060.97
2019-04-04T15:08:00.977Z,97057.22
2019-04-04T15:10:34.301Z,97064.77
2019-04-04T15:13:08.734Z,97060.20
2019-04-04T15:16:13.923Z,97050.48
2019-04-04T15:18:49.288Z,97052.13
2019-04-04T15:21:23.125Z,97051.92
2019-04-04T15:23:56.932Z,97052.98
2019-04-04T15:26:30.568Z,97055.14
2019-04-04T15:29:04.306Z,97062.70
2019-04-04T15:31:37.997Z,97064.25
2019-04-04T15:34:11.663Z,97062.16
2019-04-04T15:36:45.341Z,97060.00
2019-04-04T15:39:21.047Z,97059.47
2019-04-04T15:41:54.813Z,97062.41
2019-04-04T15:44:28.593Z,97063.52
2019-04-04T15:47:02.621Z,97064.42
2019-04-04T15:49:36.292Z,97059.12
2019-04-04T15:52:11.973Z,97066.47
2019-04-04T15:54:45.720Z,97066.17
2019-04-04T15:57:20.196Z,97063.48
2019-04-04T15:59:54.114Z,97068.02
2019-04-04T16:02:27.890Z,97069.98
2019-04-04T16:05:01.662Z,97069.16
2019-04-04T16:07:35.515Z,97067.00
2019-04-04T16:10:09.196Z,97076.09
2019-04-04T16:12:42.969Z,97068.45
2019-04-04T16:15:16.826Z,97069.80
2019-04-04T16:17:50.590Z,97077.59
2019-04-04T16:20:24.338Z,97077.80
2019-04-04T16:22:58.079Z,97080.81
2019-04-04T16:25:32.259Z,97075.10
2019-04-04T16:28:06.308Z,97079.67
2019-04-04T16:30:40.275Z,97081.55
2019-04-04T16:33:13.984Z,97089.34
2019-04-04T16:35:47.831Z,97088.48
2019-04-04T16:38:23.016Z,97087.46
2019-04-04T16:40:56.951Z,97096.89
2019-04-04T16:43:30.599Z,97096.06
2019-04-04T16:46:04.554Z,97096.56
2019-04-04T16:48:38.354Z,97096.36
2019-04-04T16:51:12.488Z,97093.88
2019-04-04T16:53:46.206Z,97098.32
2019-04-04T16:56:21.356Z,97100.20
2019-04-04T16:58:55.330Z,97096.45
2019-04-04T17:01:29.138Z,97099.67
2019-04-04T17:04:04.971Z,97101.83
2019-04-04T17:06:38.695Z,97105.05
2019-04-04T17:09:12.641Z,97109.39
2019-04-04T17:11:46.395Z,97114.77
2019-04-04T17:14:20.332Z,97106.93
2019-04-04T17:16:54.234Z,97116.03
2019-04-04T17:19:27.939Z,97114.16
2019-04-04T17:22:02.197Z,97120.39
2019-04-04T17:24:35.973Z,97120.07
2019-04-04T17:27:09.690Z,97125.25
2019-04-04T17:29:47.495Z,97125.25
2019-04-04T17:32:21.430Z,97127.86
2019-04-04T17:34:56.083Z,97131.28
2019-04-04T17:37:30.652Z,97134.80
2019-04-04T17:40:04.857Z,97130.98
2019-04-04T17:42:40.798Z,97138.22
2019-04-04T17:45:14.803Z,97144.75
2019-04-04T17:47:48.849Z,97141.44
2019-04-04T17:50:23.256Z,97150.34
2019-04-04T17:52:57.129Z,97149.52
2019-04-04T17:55:31.100Z,97149.84
2019-04-04T17:58:04.936Z,97155.95
2019-04-04T18:00:39.410Z,97162.16
2019-04-04T18:03:13.551Z,97161.34
2019-04-04T18:05:47.291Z,97166.73
2019-04-04T18:08:21.143Z,97170.23
2019-04-04T18:10:54.918Z,97170.77
2019-04-04T18:13:28.584Z,97172.94
2019-04-04T18:16:02.574Z,97181.72
2019-04-04T18:18:36.244Z,97179.96
2019-04-04T18:21:10.924Z,97175.72
2019-04-04T18:23:44.844Z,97183.80
2019-04-04T18:26:18.668Z,97185.44
2019-04-04T18:28:52.915Z,97185.96
2019-04-04T18:31:26.837Z,97191.44
2019-04-04T18:34:00.920Z,97193.61
2019-04-04T18:36:34.790Z,97195.58
2019-04-04T18:39:09.882Z,97200.44
2019-04-04T18:41:43.677Z,97193.70
2019-04-04T18:44:17.444Z,97191.01
2019-04-04T18:46:51.094Z,97194.03
2019-04-04T18:49:24.939Z,97193.80
2019-04-04T18:51:58.679Z,97195.96
2019-04-04T18:54:33.099Z,97194.61
2019-04-04T18:57:07.119Z,97197.31
2019-04-04T18:59:40.772Z,97202.49
2019-04-04T19:02:14.929Z,97202.70
2019-04-04T19:04:48.768Z,97207.36
2019-04-04T19:07:22.665Z,97204.13
2019-04-04T19:09:56.569Z,97203.31
2019-04-04T19:12:30.313Z,97211.39
2019-04-04T19:15:04.076Z,97207.36
2019-04-04T19:17:37.926Z,97206.01
2019-04-04T19:20:11.732Z,97207.67
2019-04-04T19:22:45.564Z,97203.31
2019-04-04T19:25:19.435Z,97200.95
2019-04-04T19:27:53.421Z,97213.06
2019-04-04T19:30:27.307Z,97207.67
2019-04-04T19:33:01.059Z,97221.97
2019-04-04T19:35:34.851Z,97222.98
2019-04-04T19:38:08.612Z,97220.63
2019-04-04T19:40:42.815Z,97228.70
2019-04-04T19:43:18.305Z,97219.80
2019-04-04T19:45:53.096Z,97219.80
2019-04-04T19:48:26.911Z,97218.45
2019-04-04T19:51:00.650Z,97224.66
2019-04-04T19:53:34.567Z,97229.23
2019-04-04T19:56:08.359Z,97228.17
2019-04-04T19:58:42.584Z,97230.05
2019-04-04T20:01:16.513Z,97226.53
2019-04-04T20:03:50.206Z,97225.48
2019-04-04T20:06:23.884Z,97233.86
2019-04-04T20:08:59.095Z,97238.66
2019-04-04T20:11:33.074Z,97228.70
2019-04-04T20:14:06.846Z,97227.55
2019-04-04T20:16:40.842Z,97231.06
2019-04-04T20:19:14.546Z,97232.74
2019-04-04T20:21:50.371Z,97238.13
2019-04-04T20:24:24.118Z,97238.66
2019-04-04T20:26:57.789Z,97240.00
2019-04-04T20:29:32.110Z,97241.34
2019-04-04T20:32:05.949Z,97247.56
2019-04-04T20:34:39.787Z,97244.05
2019-04-04T20:37:13.597Z,97249.92
2019-04-04T20:39:47.367Z,97254.30
2019-04-04T20:42:21.331Z,97251.80
2019-04-04T20:44:55.279Z,97258.01
2019-04-04T20:47:29.223Z,97261.84
2019-04-04T20:50:03.322Z,97258.01
2019-04-04T20:52:37.104Z,97253.97
2019-04-04T20:55:10.766Z,97262.38
2019-04-04T20:57:44.516Z,97258.86
2019-04-04T21:00:18.260Z,97260.20
2019-04-04T21:02:52.170Z,97266.61
2019-04-04T21:05:26.129Z,97266.41
2019-04-04T21:07:59.865Z,97265.59
2019-04-04T21:10:36.045Z,97279.06
2019-04-04T21:13:09.892Z,97282.58
2019-04-04T21:15:43.599Z,97277.19
2019-04-04T21:18:17.473Z,97279.36
2019-04-04T21:20:51.223Z,97283.10
2019-04-04T21:23:25.056Z,97290.13
2019-04-04T21:25:58.822Z,97287.14
2019-04-04T21:28:32.704Z,97294.17
2019-04-04T21:31:06.659Z,97292.53
2019-04-04T21:33:40.384Z,97293.35
2019-04-04T21:36:14.103Z,97298.74
2019-04-04T21:38:47.851Z,97301.73
2019-04-04T21:41:21.858Z,97302.25
2019-04-04T21:44:08.226Z,97305.47
2019-04-04T21:46:33.051Z,97304.66
2019-04-04T21:49:06.805Z,97308.70
2019-04-04T21:51:40.622Z,97311.69
2019-04-04T21:54:14.384Z,97313.03
2019-04-04T21:56:48.111Z,97317.59
2019-04-04T21:59:22.219Z,97310.86
2019-04-04T22:01:56.162Z,97321.11
2019-04-04T22:04:31.361Z,97316.02
2019-04-04T22:07:05.129Z,97314.38
2019-04-04T22:09:39.092Z,97309.52
2019-04-04T22:12:12.897Z,97310.34
2019-04-04T22:14:47.844Z,97309.81
2019-04-04T22:17:22.217Z,97310.34
2019-04-04T22:19:55.880Z,97315.43
2019-04-04T22:22:29.726Z,97319.23
2019-04-04T22:25:03.585Z,97318.41
2019-04-04T22:27:37.508Z,97316.55
2019-04-04T22:30:11.280Z,97318.41
2019-04-04T22:32:45.047Z,97321.93
2019-04-04T22:35:18.957Z,97322.75
2019-04-04T22:37:52.599Z,97320.06
2019-04-04T22:40:26.359Z,97322.75
2019-04-04T22:43:00.200Z,97316.55
2019-04-04T22:45:33.992Z,97325.45
2019-04-04T22:48:07.628Z,97324.63
2019-04-04T22:50:41.754Z,97321.93
2019-04-04T22:53:15.566Z,97326.80
2019-04-04T22:55:49.385Z,97326.80
2019-04-04T22:58:28.404Z,97326.50
2019-04-04T23:00:58.832Z,97322.75
2019-04-04T23:03:33.722Z,97314.38
2019-04-04T23:06:07.523Z,97319.56
2019-04-04T23:08:41.140Z,97318.72
2019-04-04T23:11:14.860Z,97313.03
2019-04-04T23:13:48.568Z,97313.85
2019-04-04T23:16:22.310Z,97316.77
2019-04-04T23:18:56.147Z,97319.47
2019-04-04T23:21:29.888Z,97314.08
2019-04-04T23:24:03.614Z,97313.03
2019-04-04T23:26:37.236Z,97309.52
2019-04-04T23:29:11.088Z,97311.98
2019-04-04T23:31:44.786Z,97307.94
2019-04-04T23:34:18.570Z,97308.46
2019-04-04T23:36:52.355Z,97306.59
2019-04-04T23:39:26.121Z,97301.20
2019-04-04T23:41:59.886Z,97299.86
2019-04-04T23:44:33.666Z,97306.09
2019-04-04T23:47:07.535Z,97310.13
2019-04-04T23:49:41.291Z,97303.41
2019-04-04T23:52:15.068Z,97293.64
2019-04-04T23:54:48.959Z,97298.51
2019-04-04T23:57:22.961Z,97303.70
2019-04-04T23:59:56.730Z,97303.17
